Time;durP1;ratioP1;P1;durP2;ratioP2;P2;SDS_P1;SDS_P2;PMS_P1;PMS_P2;Temp;Humidity;BMP_temperature;BMP_pressure;BME280_temperature;BME280_humidity;BME280_pressure;Samples;Min_cycle;Max_cycle;Signal;HPM_P1;HPM_P2
2022/10/24 00:00:20;;;;;;;4.80;1.58;;;15.10;99.90;;;;;;5135839;27;20066;-68
2022/10/24 00:02:46;;;;;;;5.13;1.45;;;15.20;99.90;;;;;;5135674;27;20051;-69
2022/10/24 00:05:12;;;;;;;5.50;1.55;;;15.20;99.90;;;;;;5154238;27;20043;-67
2022/10/24 00:07:39;;;;;;;3.95;1.60;;;15.20;99.90;;;;;;5154114;27;20034;-67
2022/10/24 00:10:05;;;;;;;8.13;1.42;;;15.20;99.90;;;;;;5135686;27;20031;-69
2022/10/24 00:12:31;;;;;;;5.03;1.35;;;15.20;99.90;;;;;;5133339;27;20527;-69
2022/10/24 00:14:57;;;;;;;7.30;1.75;;;15.30;99.90;;;;;;5135740;27;20036;-69
2022/10/24 00:17:23;;;;;;;7.97;1.35;;;15.30;99.90;;;;;;5135559;27;20049;-68
2022/10/24 00:19:48;;;;;;;8.35;1.92;;;15.30;99.90;;;;;;5135735;27;20405;-71
2022/10/24 00:22:14;;;;;;;3.47;1.40;;;15.40;99.90;;;;;;5118391;27;20043;-68
2022/10/24 00:24:40;;;;;;;6.25;1.52;;;15.40;99.90;;;;;;5154290;27;20031;-68
2022/10/24 00:27:06;;;;;;;5.22;1.65;;;15.40;99.90;;;;;;5135552;27;20099;-69
2022/10/24 00:29:32;;;;;;;4.50;1.38;;;15.40;99.90;;;;;;5135791;27;20038;-69
2022/10/24 00:31:57;;;;;;;3.55;1.20;;;15.50;99.90;;;;;;5134674;27;20678;-71
2022/10/24 00:34:23;;;;;;;4.82;1.27;;;15.50;99.90;;;;;;5153634;27;20108;-71
2022/10/24 00:36:50;;;;;;;5.28;1.42;;;15.50;99.90;;;;;;5154037;27;20542;-71
2022/10/24 00:39:16;;;;;;;6.35;1.38;;;15.40;99.90;;;;;;5153895;27;20107;-70
2022/10/24 00:41:42;;;;;;;4.15;1.27;;;15.40;99.90;;;;;;5153173;27;20035;-68
2022/10/24 00:44:24;;;;;;;4.60;1.73;;;15.40;99.90;;;;;;5134146;27;20034;-70
2022/10/24 00:47:03;;;;;;;6.82;1.55;;;15.40;99.90;;;;;;5135467;27;20033;-69
2022/10/24 00:49:38;;;;;;;6.50;1.65;;;15.30;99.90;;;;;;5157769;27;20035;-70
2022/10/24 00:52:07;;;;;;;7.50;1.35;;;15.30;99.90;;;;;;5143355;27;20035;-71
2022/10/24 00:54:35;;;;;;;5.68;1.92;;;15.30;99.90;;;;;;5126051;27;20122;-70
2022/10/24 00:57:10;;;;;;;3.85;1.60;;;15.40;99.90;;;;;;5157812;27;20043;-71
2022/10/24 00:59:40;;;;;;;4.68;1.48;;;15.30;99.90;;;;;;5139126;27;20039;-68
2022/10/24 01:02:06;;;;;;;6.28;2.25;;;15.40;99.90;;;;;;5139005;27;20038;-69
2022/10/24 01:04:33;;;;;;;3.47;1.65;;;15.40;99.90;;;;;;5157690;27;20035;-68
2022/10/24 01:07:01;;;;;;;5.13;1.88;;;15.40;99.90;;;;;;5138918;27;20046;-69
2022/10/24 01:09:58;;;;;;;8.10;2.53;;;15.40;99.90;;;;;;5122046;27;20496;-69
2022/10/24 01:12:36;;;;;;;5.03;1.52;;;15.40;99.90;;;;;;5136454;27;20551;-69
2022/10/24 01:15:11;;;;;;;3.65;1.70;;;15.50;99.90;;;;;;5157364;27;20047;-71
2022/10/24 01:17:57;;;;;;;6.30;2.10;;;15.50;99.90;;;;;;5138830;27;20038;-68
2022/10/24 01:20:31;;;;;;;5.47;2.15;;;15.50;99.90;;;;;;5157386;27;20261;-68
2022/10/24 01:23:05;;;;;;;3.95;1.42;;;15.50;99.90;;;;;;5138665;27;20053;-70
2022/10/24 01:25:37;;;;;;;8.98;2.83;;;15.50;99.90;;;;;;5138444;27;20066;-70
2022/10/24 01:28:24;;;;;;;5.65;1.92;;;15.50;99.90;;;;;;5138721;27;20043;-67
2022/10/24 01:31:10;;;;;;;3.63;1.80;;;15.50;99.90;;;;;;5138474;27;20037;-70
2022/10/24 01:33:45;;;;;;;7.70;2.25;;;15.50;99.90;;;;;;5138518;27;20053;-68
2022/10/24 01:36:19;;;;;;;5.53;1.85;;;15.50;99.90;;;;;;5156745;27;20054;-73
2022/10/24 01:38:51;;;;;;;6.15;1.90;;;15.50;99.90;;;;;;5138669;27;20078;-68
2022/10/24 01:41:20;;;;;;;7.85;2.20;;;15.50;99.90;;;;;;5138285;27;20045;-68
2022/10/24 01:44:05;;;;;;;6.93;2.77;;;15.50;99.90;;;;;;5153445;27;20050;-69
2022/10/24 01:46:38;;;;;;;5.57;2.47;;;15.50;99.90;;;;;;5141882;27;20414;-70
2022/10/24 01:49:23;;;;;;;7.30;2.35;;;15.50;99.90;;;;;;5100702;27;20644;-68
2022/10/24 01:51:55;;;;;;;9.90;2.97;;;15.50;99.90;;;;;;5149129;27;20608;-69
2022/10/24 01:54:21;;;;;;;7.05;2.40;;;15.50;99.90;;;;;;5138066;27;20074;-69
2022/10/24 01:56:48;;;;;;;7.80;2.35;;;15.50;99.90;;;;;;5138018;27;20042;-69
2022/10/24 01:59:28;;;;;;;8.45;2.50;;;15.50;99.90;;;;;;5119732;27;20176;-67
2022/10/24 02:01:57;;;;;;;6.95;2.67;;;15.50;99.90;;;;;;5137680;27;20051;-68
2022/10/24 02:04:25;;;;;;;5.50;2.22;;;15.50;99.90;;;;;;5156255;27;20050;-71
2022/10/24 02:06:54;;;;;;;9.55;2.40;;;15.50;99.90;;;;;;5156552;27;20397;-72
2022/10/24 02:09:21;;;;;;;8.82;2.72;;;15.50;99.90;;;;;;5137746;27;20368;-72
2022/10/24 02:11:47;;;;;;;5.82;2.00;;;15.50;99.90;;;;;;5154996;27;20031;-69
2022/10/24 02:14:22;;;;;;;7.15;1.85;;;15.50;99.90;;;;;;5137334;27;20048;-71
2022/10/24 02:16:49;;;;;;;8.15;2.30;;;15.50;99.90;;;;;;5137808;27;20462;-69
2022/10/24 02:19:15;;;;;;;4.68;2.50;;;15.50;99.90;;;;;;5154769;27;20567;-69
2022/10/24 02:21:52;;;;;;;5.78;2.05;;;15.50;99.90;;;;;;5100088;27;20387;-70
2022/10/24 02:24:23;;;;;;;5.68;1.75;;;15.40;99.90;;;;;;5116996;27;20078;-70
2022/10/24 02:26:54;;;;;;;3.60;1.70;;;15.40;99.90;;;;;;5135267;27;20031;-67
2022/10/24 02:29:33;;;;;;;8.50;2.70;;;15.40;99.90;;;;;;5116839;27;20070;-70
2022/10/24 02:32:00;;;;;;;4.93;1.90;;;15.40;99.90;;;;;;5135093;27;20039;-70
2022/10/24 02:34:30;;;;;;;6.10;2.40;;;15.40;99.90;;;;;;5116444;27;20051;-70
2022/10/24 02:36:58;;;;;;;8.60;2.58;;;15.40;99.90;;;;;;5128545;27;20043;-69
2022/10/24 02:39:25;;;;;;;5.32;2.00;;;15.40;99.90;;;;;;5155777;27;20043;-71
2022/10/24 02:41:54;;;;;;;7.72;2.00;;;15.40;99.90;;;;;;5135474;27;20460;-70
2022/10/24 02:44:20;;;;;;;7.68;2.22;;;15.40;99.90;;;;;;5137004;27;20440;-69
2022/10/24 02:46:49;;;;;;;10.10;2.25;;;15.40;99.90;;;;;;5119812;27;20035;-70
2022/10/24 02:49:15;;;;;;;5.55;2.00;;;15.40;99.90;;;;;;5136975;27;20506;-69
2022/10/24 02:51:43;;;;;;;7.43;1.98;;;15.30;99.90;;;;;;5137117;27;20030;-69
2022/10/24 02:54:10;;;;;;;4.18;2.00;;;15.30;99.90;;;;;;5119990;27;20046;-69
2022/10/24 02:56:40;;;;;;;7.05;1.80;;;15.30;99.90;;;;;;5136932;27;20039;-68
2022/10/24 02:59:06;;;;;;;5.85;2.22;;;15.30;99.90;;;;;;5136523;27;20371;-69
2022/10/24 03:01:32;;;;;;;6.18;1.65;;;15.30;99.90;;;;;;5136565;27;20054;-69
2022/10/24 03:03:58;;;;;;;7.70;2.10;;;15.30;99.90;;;;;;5154483;27;20039;-69
2022/10/24 03:06:24;;;;;;;6.25;1.88;;;15.30;99.90;;;;;;5135728;27;20061;-72
2022/10/24 03:08:49;;;;;;;4.15;1.73;;;15.40;99.90;;;;;;5135515;27;20119;-70
2022/10/24 03:11:16;;;;;;;8.80;1.90;;;15.40;99.90;;;;;;5135303;27;20089;-71
2022/10/24 03:13:41;;;;;;;3.92;1.83;;;15.30;99.90;;;;;;5152674;27;20035;-71
2022/10/24 03:16:07;;;;;;;6.82;1.90;;;15.30;99.90;;;;;;5155163;27;20061;-70
2022/10/24 03:18:33;;;;;;;5.68;2.40;;;15.30;99.90;;;;;;5119559;27;20039;-67
2022/10/24 03:20:58;;;;;;;6.70;2.03;;;15.30;99.90;;;;;;5136503;27;20039;-70
2022/10/24 03:23:27;;;;;;;5.72;2.15;;;15.30;99.90;;;;;;5136410;27;20046;-70
2022/10/24 03:25:54;;;;;;;3.58;1.77;;;15.30;99.90;;;;;;5136744;27;20374;-68
2022/10/24 03:28:20;;;;;;;8.05;2.22;;;15.30;99.90;;;;;;5136680;27;20379;-68
2022/10/24 03:30:46;;;;;;;6.45;2.38;;;15.20;99.90;;;;;;5136632;27;20046;-68
2022/10/24 03:33:12;;;;;;;6.15;2.58;;;15.20;99.90;;;;;;5119256;27;20034;-72
2022/10/24 03:35:38;;;;;;;4.90;1.77;;;15.20;99.90;;;;;;5136304;27;20053;-72
2022/10/24 03:38:07;;;;;;;3.10;1.83;;;15.10;99.90;;;;;;5154700;27;20498;-68
2022/10/24 03:40:34;;;;;;;5.38;1.90;;;15.10;99.90;;;;;;5119004;27;20129;-69
2022/10/24 03:43:00;;;;;;;5.78;1.92;;;15.10;99.90;;;;;;5134001;27;20557;-67
2022/10/24 03:45:25;;;;;;;4.65;1.80;;;15.00;99.90;;;;;;5154789;27;20117;-69
2022/10/24 03:47:51;;;;;;;2.58;1.40;;;15.10;99.90;;;;;;5136516;27;20038;-68
2022/10/24 03:50:17;;;;;;;8.98;1.90;;;15.00;99.90;;;;;;5154735;27;20092;-69
2022/10/24 03:52:43;;;;;;;4.32;1.63;;;15.00;99.90;;;;;;5154613;27;20448;-68
2022/10/24 03:55:09;;;;;;;5.75;1.85;;;14.90;99.90;;;;;;5154549;27;20035;-70
2022/10/24 03:57:35;;;;;;;7.55;1.80;;;14.90;99.90;;;;;;5135886;27;20041;-70
2022/10/24 04:00:01;;;;;;;9.95;2.15;;;14.90;99.90;;;;;;5154702;27;20118;-69
2022/10/24 04:02:27;;;;;;;6.03;1.73;;;14.80;99.90;;;;;;5154446;27;20105;-69
2022/10/24 04:04:53;;;;;;;6.25;1.80;;;14.80;99.90;;;;;;5154491;27;20046;-70
2022/10/24 04:07:19;;;;;;;4.85;1.90;;;14.80;99.90;;;;;;5135785;27;20076;-71
2022/10/24 04:09:44;;;;;;;6.28;1.70;;;14.80;99.90;;;;;;5154249;27;20167;-68
2022/10/24 04:12:10;;;;;;;5.20;1.58;;;14.80;99.90;;;;;;5133730;27;20046;-69
2022/10/24 04:14:36;;;;;;;4.90;1.70;;;14.80;99.90;;;;;;5135727;27;20124;-67
2022/10/24 04:17:02;;;;;;;3.83;1.80;;;14.80;99.90;;;;;;5135762;27;20043;-70
2022/10/24 04:19:27;;;;;;;4.88;1.52;;;14.80;99.90;;;;;;5135984;27;20047;-71
2022/10/24 04:21:53;;;;;;;6.88;2.05;;;14.80;99.90;;;;;;5135771;27;20704;-69
2022/10/24 04:24:19;;;;;;;7.38;1.80;;;14.80;99.90;;;;;;5139743;27;20035;-69
2022/10/24 04:26:45;;;;;;;3.92;1.42;;;14.80;99.90;;;;;;5158720;27;20042;-69
2022/10/24 04:29:10;;;;;;;7.68;2.05;;;14.80;99.90;;;;;;5139946;27;20034;-68
2022/10/24 04:31:36;;;;;;;5.72;1.83;;;14.80;99.90;;;;;;5158546;27;20042;-69
2022/10/24 04:34:04;;;;;;;7.93;2.13;;;14.80;99.90;;;;;;5158457;27;20083;-75
2022/10/24 04:36:30;;;;;;;6.30;1.58;;;14.80;99.90;;;;;;5139638;27;20094;-71
2022/10/24 04:38:56;;;;;;;6.53;1.95;;;14.80;99.90;;;;;;5139745;27;20050;-68
2022/10/24 04:41:22;;;;;;;5.80;1.73;;;14.80;99.90;;;;;;5139661;27;20387;-69
2022/10/24 04:43:47;;;;;;;6.60;1.50;;;14.80;99.90;;;;;;5137409;27;20043;-72
2022/10/24 04:46:13;;;;;;;8.20;1.90;;;14.80;99.90;;;;;;5158150;27;20093;-69
2022/10/24 04:48:39;;;;;;;6.15;2.72;;;14.80;99.90;;;;;;5158230;27;20038;-71
2022/10/24 04:51:04;;;;;;;5.68;1.70;;;14.80;99.90;;;;;;5139481;27;20062;-73
2022/10/24 04:53:30;;;;;;;5.03;1.58;;;14.80;99.90;;;;;;5157954;27;20090;-72
2022/10/24 04:55:56;;;;;;;7.15;1.63;;;14.80;99.90;;;;;;5157980;27;20035;-69
2022/10/24 04:58:22;;;;;;;6.28;1.50;;;14.80;99.90;;;;;;5139396;27;20027;-70
2022/10/24 05:00:49;;;;;;;7.15;1.70;;;14.80;99.90;;;;;;5122460;27;20042;-72
2022/10/24 05:03:16;;;;;;;4.53;1.35;;;14.80;99.90;;;;;;5157864;27;20035;-68
2022/10/24 05:05:42;;;;;;;5.40;1.63;;;14.80;99.90;;;;;;5139367;27;20043;-70
2022/10/24 05:08:08;;;;;;;6.50;1.45;;;14.80;99.90;;;;;;5157705;27;20110;-72
2022/10/24 05:10:34;;;;;;;6.22;1.58;;;14.80;99.90;;;;;;5139083;27;20187;-74
2022/10/24 05:13:00;;;;;;;3.63;1.40;;;14.80;99.90;;;;;;5155524;27;20045;-70
2022/10/24 05:15:28;;;;;;;5.18;1.27;;;14.80;99.90;;;;;;5139317;27;20070;-71
2022/10/24 05:17:55;;;;;;;4.80;1.17;;;14.80;99.90;;;;;;5157665;27;20432;-73
2022/10/24 05:20:21;;;;;;;6.68;2.15;;;14.90;99.90;;;;;;5139253;27;20049;-72
2022/10/24 05:22:46;;;;;;;7.43;1.60;;;14.90;99.90;;;;;;5139004;27;20490;-70
2022/10/24 05:25:12;;;;;;;5.07;1.48;;;15.00;99.90;;;;;;5121581;27;20126;-71
2022/10/24 05:27:38;;;;;;;5.50;1.25;;;15.00;99.90;;;;;;5138866;27;20034;-69
2022/10/24 05:30:05;;;;;;;5.05;1.13;;;15.00;99.90;;;;;;5138767;27;20038;-72
2022/10/24 05:32:30;;;;;;;5.65;1.75;;;15.00;99.90;;;;;;5157381;27;20045;-72
2022/10/24 05:34:56;;;;;;;5.05;1.40;;;15.10;99.90;;;;;;5138597;27;20141;-70
2022/10/24 05:37:22;;;;;;;7.22;1.38;;;15.10;99.90;;;;;;5138581;27;20448;-70
2022/10/24 05:39:48;;;;;;;5.55;1.38;;;15.10;99.90;;;;;;5138635;27;20064;-72
2022/10/24 05:42:14;;;;;;;6.10;1.42;;;15.20;99.90;;;;;;5119017;27;20042;-70
2022/10/24 05:44:40;;;;;;;7.65;1.40;;;15.30;99.90;;;;;;5121385;27;20046;-67
2022/10/24 05:47:06;;;;;;;4.80;1.33;;;15.30;99.90;;;;;;5157045;27;20406;-71
2022/10/24 05:49:32;;;;;;;8.27;1.40;;;15.30;99.90;;;;;;5138395;27;20093;-69
2022/10/24 05:51:58;;;;;;;6.43;1.70;;;15.30;99.90;;;;;;5156879;27;20095;-68
2022/10/24 05:54:24;;;;;;;5.38;1.13;;;15.30;99.90;;;;;;5121427;27;20133;-70
2022/10/24 05:56:50;;;;;;;6.68;1.35;;;15.30;99.90;;;;;;5156960;27;20402;-71
2022/10/24 05:59:15;;;;;;;4.68;1.00;;;15.30;99.90;;;;;;5138181;27;20416;-69
2022/10/24 06:01:41;;;;;;;6.07;1.15;;;15.30;99.90;;;;;;5138392;27;20039;-67
2022/10/24 06:04:07;;;;;;;7.32;1.50;;;15.30;99.90;;;;;;5156500;27;20046;-70
2022/10/24 06:06:38;;;;;;;6.90;1.33;;;15.20;99.90;;;;;;5156529;27;20091;-69
2022/10/24 06:09:04;;;;;;;5.90;1.00;;;15.20;99.90;;;;;;5138097;27;20486;-67
2022/10/24 06:11:30;;;;;;;6.65;1.48;;;15.20;99.90;;;;;;5156415;27;20084;-68
2022/10/24 06:13:56;;;;;;;8.00;1.27;;;15.20;99.90;;;;;;5154301;27;20078;-71
2022/10/24 06:16:23;;;;;;;6.28;1.30;;;15.20;99.90;;;;;;5120708;27;20038;-67
2022/10/24 06:18:50;;;;;;;14.90;2.25;;;15.20;99.90;;;;;;5137892;27;20046;-69
2022/10/24 06:21:15;;;;;;;6.95;1.20;;;15.20;99.90;;;;;;5137603;27;20047;-67
2022/10/24 06:23:41;;;;;;;7.80;1.33;;;15.20;99.90;;;;;;5156351;27;20072;-69
2022/10/24 06:26:13;;;;;;;5.68;1.00;;;15.20;99.90;;;;;;5137630;27;20110;-71
2022/10/24 06:28:39;;;;;;;3.08;0.90;;;15.20;99.90;;;;;;5137628;27;20043;-68
2022/10/24 06:31:05;;;;;;;7.25;1.10;;;15.20;99.90;;;;;;5137569;27;20035;-67
2022/10/24 06:33:31;;;;;;;6.80;0.90;;;15.30;99.90;;;;;;5137769;27;20121;-67
2022/10/24 06:36:01;;;;;;;6.47;1.52;;;15.30;99.90;;;;;;5155401;27;20534;-69
2022/10/24 06:38:26;;;;;;;;;;;15.40;99.90;;;;;;5137835;27;20136;-68
2022/10/24 06:40:52;;;;;;;6.07;1.27;;;15.40;99.90;;;;;;5155868;27;19924;-72
2022/10/24 06:43:18;;;;;;;11.20;1.80;;;15.40;99.90;;;;;;5152483;27;20118;-69
2022/10/24 06:45:44;;;;;;;4.35;1.08;;;15.40;99.90;;;;;;5135728;27;20050;-69
2022/10/24 06:48:10;;;;;;;7.88;1.52;;;15.40;99.90;;;;;;5119653;27;20039;-66
2022/10/24 06:50:39;;;;;;;5.85;1.10;;;15.40;99.90;;;;;;5137897;27;20042;-71
2022/10/24 06:53:06;;;;;;;6.72;1.75;;;15.40;99.90;;;;;;5154949;27;20047;-72
2022/10/24 06:55:33;;;;;;;8.73;1.40;;;15.40;99.90;;;;;;5136176;27;20091;-67
2022/10/24 06:57:59;;;;;;;6.15;1.20;;;15.40;99.90;;;;;;5136371;27;20035;-70
2022/10/24 07:00:25;;;;;;;4.68;1.20;;;15.40;99.90;;;;;;5136020;27;20387;-68
2022/10/24 07:02:51;;;;;;;10.27;1.45;;;15.40;99.90;;;;;;5154481;27;20498;-68
2022/10/24 07:05:17;;;;;;;6.75;1.27;;;15.40;99.90;;;;;;5136153;27;20041;-71
2022/10/24 07:07:43;;;;;;;7.75;1.35;;;15.50;99.90;;;;;;5136186;27;20487;-68
2022/10/24 07:10:12;;;;;;;9.80;1.38;;;15.50;99.90;;;;;;5154372;27;20493;-67
2022/10/24 07:12:38;;;;;;;4.45;1.35;;;15.60;99.90;;;;;;5133337;27;20038;-70
2022/10/24 07:15:04;;;;;;;6.80;1.83;;;15.60;99.90;;;;;;5154184;27;20042;-68
2022/10/24 07:17:30;;;;;;;4.80;1.92;;;15.60;99.90;;;;;;5153246;27;20406;-66
2022/10/24 07:19:57;;;;;;;6.68;1.38;;;15.60;99.90;;;;;;5154448;27;20038;-70
2022/10/24 07:22:23;;;;;;;6.68;1.30;;;15.60;99.90;;;;;;5135901;27;20113;-67
2022/10/24 07:24:53;;;;;;;5.15;1.08;;;15.60;99.90;;;;;;5135445;27;20038;-71
2022/10/24 07:27:19;;;;;;;;;;;15.60;99.90;;;;;;5118746;27;20486;-68
2022/10/24 07:29:45;;;;;;;6.25;1.00;;;15.70;99.90;;;;;;5154136;27;20085;-69
2022/10/24 07:32:11;;;;;;;4.68;1.10;;;15.70;99.90;;;;;;5135284;27;20130;-67
2022/10/24 07:34:38;;;;;;;5.68;1.20;;;15.70;99.90;;;;;;5135620;27;20065;-67
2022/10/24 07:37:04;;;;;;;6.95;1.33;;;15.70;99.90;;;;;;5135313;27;20050;-70
2022/10/24 07:39:30;;;;;;;5.32;1.42;;;15.70;99.90;;;;;;5135673;27;20054;-71
2022/10/24 07:41:56;;;;;;;7.22;1.10;;;15.80;99.90;;;;;;5152163;27;20193;-68
2022/10/24 07:44:21;;;;;;;5.22;1.25;;;15.80;99.90;;;;;;5134790;27;20409;-67
2022/10/24 07:46:47;;;;;;;4.85;1.05;;;15.80;99.90;;;;;;5135268;27;20076;-67
2022/10/24 07:49:13;;;;;;;6.70;1.70;;;15.90;99.90;;;;;;5135456;27;20038;-68
2022/10/24 07:51:40;;;;;;;6.50;1.15;;;15.90;99.90;;;;;;5135468;27;20035;-65
2022/10/24 07:54:06;;;;;;;5.90;1.17;;;16.00;99.90;;;;;;5134469;27;20491;-66
2022/10/24 07:56:32;;;;;;;11.85;1.40;;;16.00;99.90;;;;;;5134610;27;20081;-66
2022/10/24 07:58:59;;;;;;;7.18;1.35;;;16.00;99.90;;;;;;5114853;27;20043;-66
2022/10/24 08:01:26;;;;;;;7.00;1.38;;;15.90;99.90;;;;;;5153355;27;20053;-69
2022/10/24 08:03:53;;;;;;;6.43;1.42;;;16.00;99.90;;;;;;5153276;27;20047;-66
2022/10/24 08:06:29;;;;;;;7.55;1.23;;;15.90;99.90;;;;;;5153455;27;20524;-67
2022/10/24 08:08:55;;;;;;;9.70;1.27;;;15.90;99.90;;;;;;5153563;27;20039;-69
2022/10/24 08:11:24;;;;;;;5.68;1.33;;;15.90;99.90;;;;;;5117866;27;20049;-69
2022/10/24 08:13:51;;;;;;;6.60;0.93;;;15.70;99.90;;;;;;5151000;27;20067;-70
2022/10/24 08:16:22;;;;;;;9.10;1.77;;;15.50;99.90;;;;;;5118120;27;20038;-68
2022/10/24 08:18:49;;;;;;;7.97;1.23;;;15.40;99.90;;;;;;5134858;27;20046;-69
2022/10/24 08:21:16;;;;;;;6.88;0.82;;;15.40;99.90;;;;;;5126395;27;20031;-68
2022/10/24 08:23:44;;;;;;;4.07;1.00;;;15.30;99.90;;;;;;5148393;27;20046;-68
2022/10/24 08:26:16;;;;;;;4.95;1.20;;;15.30;99.90;;;;;;5152968;27;20038;-68
2022/10/24 08:28:42;;;;;;;5.72;1.15;;;15.20;99.90;;;;;;5153372;27;20402;-70
2022/10/24 08:31:17;;;;;;;7.38;1.52;;;15.20;99.90;;;;;;5132665;27;20066;-70
2022/10/24 08:33:43;;;;;;;8.20;1.45;;;15.10;99.90;;;;;;5134617;27;20455;-70
2022/10/24 08:36:20;;;;;;;6.97;0.98;;;15.10;99.90;;;;;;5152830;27;20051;-70
2022/10/24 08:38:46;;;;;;;7.22;1.52;;;15.00;99.90;;;;;;5152788;27;20046;-70
2022/10/24 08:41:32;;;;;;;6.82;1.58;;;15.00;99.90;;;;;;5134596;27;20483;-70
2022/10/24 08:44:01;;;;;;;8.55;1.48;;;15.00;99.90;;;;;;5115526;28;20035;-69
2022/10/24 08:46:29;;;;;;;9.95;1.42;;;15.00;99.90;;;;;;5132140;27;20462;-70
2022/10/24 08:49:19;;;;;;;11.70;1.95;;;15.00;99.90;;;;;;5113523;28;20616;-70
2022/10/24 08:52:02;;;;;;;8.13;1.42;;;15.00;99.90;;;;;;5140749;27;20043;-69
2022/10/24 08:58:34;;;;;;;13.27;2.33;;;14.80;99.90;;;;;;5149654;27;20048;-69
2022/10/24 09:01:03;;;;;;;5.82;1.90;;;14.80;99.90;;;;;;5126356;27;20451;-70
2022/10/24 09:03:39;;;;;;;13.07;1.63;;;14.80;99.90;;;;;;5133901;27;20059;-72
2022/10/24 09:06:17;;;;;;;5.60;1.23;;;14.90;99.90;;;;;;5133659;27;20505;-73
2022/10/24 09:08:45;;;;;;;7.05;1.67;;;15.10;99.90;;;;;;5132575;27;20399;-73
2022/10/24 09:11:51;;;;;;;4.63;1.00;;;15.90;99.90;;;;;;5111186;27;20395;-70
2022/10/24 09:14:21;;;;;;;6.35;1.42;;;17.00;99.90;;;;;;5148807;27;20047;-73
2022/10/24 09:16:57;;;;;;;4.78;1.08;;;17.70;99.90;;;;;;5154480;27;20510;-70
2022/10/24 09:19:27;;;;;;;6.95;1.58;;;18.60;99.90;;;;;;5137328;27;20114;-75
2022/10/24 09:21:54;;;;;;;3.92;1.35;;;19.00;99.90;;;;;;5135429;27;20039;-73
2022/10/24 09:24:41;;;;;;;7.70;1.35;;;18.80;99.90;;;;;;5155596;27;20418;-72
2022/10/24 09:27:19;;;;;;;6.25;1.42;;;18.20;99.90;;;;;;5155462;27;20070;-69
2022/10/24 09:29:57;;;;;;;6.45;1.08;;;17.90;99.90;;;;;;5134808;27;20107;-71
2022/10/24 09:32:29;;;;;;;6.40;1.27;;;17.60;99.90;;;;;;5155735;27;20093;-74
2022/10/24 09:35:06;;;;;;;11.82;1.45;;;17.40;99.90;;;;;;5119507;27;20107;-73
2022/10/24 09:37:43;;;;;;;5.65;1.20;;;17.10;99.90;;;;;;5122432;27;20414;-73
2022/10/24 09:40:24;;;;;;;6.00;0.95;;;16.90;99.90;;;;;;5098899;27;20035;-72
2022/10/24 09:42:59;;;;;;;7.28;1.20;;;16.70;99.90;;;;;;5116328;27;20038;-71
2022/10/24 09:45:33;;;;;;;8.60;1.67;;;16.60;99.90;;;;;;5098947;27;20051;-72
2022/10/24 09:48:04;;;;;;;4.90;1.45;;;16.50;99.90;;;;;;5115991;27;20043;-72
2022/10/24 09:50:36;;;;;;;5.13;1.17;;;16.50;99.90;;;;;;5105701;27;20039;-72
2022/10/24 09:53:03;;;;;;;6.72;1.23;;;16.60;99.90;;;;;;5120635;27;20551;-73
2022/10/24 09:55:30;;;;;;;4.97;1.10;;;16.60;99.90;;;;;;5155194;27;20046;-72
2022/10/24 09:58:02;;;;;;;6.53;1.77;;;16.60;99.90;;;;;;5136623;27;20394;-72
2022/10/24 10:00:38;;;;;;;7.05;1.42;;;16.70;99.90;;;;;;5153590;27;20087;-73
2022/10/24 10:03:22;;;;;;;6.18;1.52;;;16.70;99.90;;;;;;5136333;27;20053;-69
2022/10/24 10:06:03;;;;;;;10.95;1.50;;;16.80;99.90;;;;;;5118666;27;20083;-73
2022/10/24 10:08:34;;;;;;;7.50;1.30;;;17.10;99.90;;;;;;5115770;27;20035;-73
2022/10/24 10:11:10;;;;;;;6.93;1.27;;;17.10;99.90;;;;;;5133546;27;20058;-71
2022/10/24 10:13:48;;;;;;;3.88;1.27;;;17.00;99.90;;;;;;5119445;27;20490;-75
2022/10/24 10:16:29;;;;;;;11.30;1.52;;;16.90;99.90;;;;;;5154782;27;20502;-75
2022/10/24 10:19:14;;;;;;;4.53;1.05;;;17.10;99.90;;;;;;5136282;27;20038;-73
2022/10/24 10:21:56;;;;;;;10.27;1.50;;;18.50;99.90;;;;;;5118201;27;20035;-72
2022/10/24 10:24:39;;;;;;;6.72;1.50;;;19.60;99.90;;;;;;5136222;27;20046;-74
2022/10/24 10:27:34;;;;;;;7.05;1.40;;;19.70;99.90;;;;;;5152351;27;20561;-76
2022/10/24 10:30:28;;;;;;;5.90;0.93;;;19.30;99.90;;;;;;5117880;27;20439;-74
2022/10/24 10:32:54;;;;;;;7.28;1.35;;;19.30;99.90;;;;;;5117775;27;20039;-73
2022/10/24 10:35:52;;;;;;;5.63;1.50;;;19.10;99.90;;;;;;5153307;27;20446;-73
2022/10/24 10:38:36;;;;;;;4.88;1.02;;;18.90;99.90;;;;;;5114248;27;20118;-72
2022/10/24 10:41:20;;;;;;;7.85;1.23;;;18.60;99.90;;;;;;5117164;27;20046;-75
2022/10/24 10:43:58;;;;;;;7.32;1.23;;;18.60;99.90;;;;;;5153160;27;20114;-74
2022/10/24 10:46:30;;;;;;;8.30;1.95;;;19.00;99.90;;;;;;5153765;27;20615;-74
2022/10/24 10:49:12;;;;;;;5.93;1.25;;;19.70;99.90;;;;;;5134918;27;20065;-73
2022/10/24 10:51:46;;;;;;;6.65;1.60;;;19.90;99.90;;;;;;5134982;27;20347;-75
2022/10/24 10:54:39;;;;;;;5.05;1.05;;;20.00;99.90;;;;;;5152940;27;20045;-72
2022/10/24 10:57:23;;;;;;;4.53;0.73;;;19.70;99.90;;;;;;5134642;27;20043;-72
2022/10/24 11:00:09;;;;;;;6.47;1.20;;;19.20;99.90;;;;;;5134803;27;20101;-69
2022/10/24 11:03:03;;;;;;;9.57;1.23;;;18.80;99.90;;;;;;5117719;27;20035;-72
2022/10/24 11:05:39;;;;;;;7.47;1.20;;;18.60;99.90;;;;;;5135248;27;20047;-71
2022/10/24 11:08:23;;;;;;;7.75;1.23;;;18.40;99.90;;;;;;5151381;27;20134;-71
2022/10/24 11:10:56;;;;;;;6.57;1.17;;;18.20;99.90;;;;;;5153612;27;20039;-73
2022/10/24 11:13:35;;;;;;;6.00;1.00;;;18.00;99.90;;;;;;5118224;27;20046;-73
2022/10/24 11:16:07;;;;;;;8.63;1.65;;;18.20;99.90;;;;;;5153905;27;20099;-72
2022/10/24 11:18:39;;;;;;;5.45;1.05;;;18.20;99.90;;;;;;5153797;27;20039;-72
2022/10/24 11:21:08;;;;;;;7.50;1.38;;;18.30;99.90;;;;;;5134909;27;20042;-71
2022/10/24 11:23:54;;;;;;;4.85;1.00;;;18.60;99.90;;;;;;5134904;27;20068;-75
2022/10/24 11:26:32;;;;;;;3.83;1.00;;;19.00;99.90;;;;;;5153773;27;20074;-72
2022/10/24 11:29:15;;;;;;;4.90;0.80;;;18.90;99.90;;;;;;5134733;27;20030;-73
2022/10/24 11:31:51;;;;;;;6.28;1.58;;;19.00;99.90;;;;;;5117570;27;20121;-74
2022/10/24 11:34:23;;;;;;;4.60;0.80;;;18.90;99.90;;;;;;5134771;27;20087;-72
2022/10/24 11:36:58;;;;;;;5.45;1.23;;;18.90;99.90;;;;;;5134595;27;20514;-72
2022/10/24 11:39:49;;;;;;;4.82;1.08;;;18.90;99.90;;;;;;5115197;27;20054;-72
2022/10/24 11:42:20;;;;;;;5.82;1.70;;;18.90;99.90;;;;;;5134584;27;20487;-74
2022/10/24 11:44:49;;;;;;;7.88;0.90;;;18.90;99.90;;;;;;5134489;27;20091;-76
2022/10/24 11:47:24;;;;;;;6.22;1.23;;;19.00;99.90;;;;;;5153084;27;20547;-72
2022/10/24 11:50:31;;;;;;;10.90;1.50;;;18.90;99.90;;;;;;5153075;27;20405;-71
2022/10/24 11:53:15;;;;;;;4.53;1.25;;;18.90;99.90;;;;;;5032042;28;20189;-76
2022/10/24 11:55:49;;;;;;;8.40;1.13;;;19.00;99.90;;;;;;5153104;27;20039;-74
2022/10/24 11:58:19;;;;;;;3.55;0.90;;;19.10;99.90;;;;;;5134536;27;20494;-72
2022/10/24 12:00:50;;;;;;;4.43;1.10;;;19.00;99.90;;;;;;5153169;27;20042;-73
2022/10/24 12:03:41;;;;;;;4.70;1.60;;;18.70;99.90;;;;;;5134577;27;20035;-67
2022/10/24 12:06:22;;;;;;;5.47;1.00;;;18.20;99.90;;;;;;5134334;27;20111;-73
2022/10/24 12:09:43;;;;;;;5.57;0.93;;;17.90;99.90;;;;;;5150849;27;20042;-75
2022/10/24 12:12:25;;;;;;;5.47;0.80;;;17.60;99.90;;;;;;5027465;27;20048;-75
2022/10/24 12:14:58;;;;;;;5.60;0.88;;;17.40;99.90;;;;;;5152976;27;20490;-73
2022/10/24 12:17:35;;;;;;;5.22;1.33;;;17.30;99.90;;;;;;5134659;27;20397;-72
2022/10/24 12:20:04;;;;;;;6.20;1.25;;;17.20;99.90;;;;;;5134598;27;20061;-74
2022/10/24 12:22:35;;;;;;;11.70;2.50;;;17.10;99.90;;;;;;5134370;27;20062;-72
2022/10/24 12:25:17;;;;;;;6.10;1.15;;;17.00;99.90;;;;;;5117014;27;20043;-71
2022/10/24 12:27:43;;;;;;;9.57;1.52;;;16.90;99.90;;;;;;5153194;27;20494;-71
2022/10/24 12:30:09;;;;;;;7.97;0.90;;;16.80;99.90;;;;;;5152871;27;20037;-69
2022/10/24 12:32:46;;;;;;;5.80;0.93;;;17.10;99.90;;;;;;5134111;27;20036;-74
2022/10/24 12:35:39;;;;;;;10.80;1.42;;;17.40;99.90;;;;;;5134223;27;20122;-73
2022/10/24 12:38:27;;;;;;;7.90;1.58;;;17.40;99.90;;;;;;5131869;27;20054;-74
2022/10/24 12:41:30;;;;;;;7.47;1.13;;;17.60;99.90;;;;;;5134396;27;20187;-75
2022/10/24 12:44:36;;;;;;;5.82;1.40;;;17.50;99.90;;;;;;5118835;27;20039;-76
2022/10/24 12:47:30;;;;;;;6.68;1.10;;;17.30;99.90;;;;;;5138139;27;20047;-73
2022/10/24 12:49:57;;;;;;;7.03;1.08;;;17.10;99.90;;;;;;5156445;27;20050;-75
2022/10/24 12:52:46;;;;;;;8.25;1.30;;;17.00;99.90;;;;;;5121007;27;20506;-73
2022/10/24 12:55:30;;;;;;;3.83;1.10;;;17.00;99.90;;;;;;5090763;27;20269;-72
2022/10/24 12:57:56;;;;;;;6.20;0.90;;;17.00;99.90;;;;;;5137649;27;20513;-71
2022/10/24 13:00:32;;;;;;;7.22;1.55;;;17.00;99.90;;;;;;5120690;27;20039;-74
2022/10/24 13:03:07;;;;;;;5.15;1.17;;;17.00;99.90;;;;;;5137609;27;20509;-72
2022/10/24 13:06:04;;;;;;;10.68;1.42;;;17.10;99.90;;;;;;5129014;27;20099;-71
2022/10/24 13:09:04;;;;;;;5.57;1.58;;;17.10;99.90;;;;;;5108849;27;20047;-73
2022/10/24 13:11:57;;;;;;;6.60;1.02;;;17.20;99.90;;;;;;5156100;27;20068;-70
2022/10/24 13:14:36;;;;;;;3.63;1.00;;;17.10;99.90;;;;;;5155948;27;20126;-72